sensor_id;sensor_type;location;lat;lon;timestamp;P1;durP1;ratioP1;P2;durP2;ratioP2
41661;SDS011;27351;45.992;12.666;2022-11-23T00:01:41;0.10;;;0.10;;
41661;SDS011;27351;45.992;12.666;2022-11-23T00:04:07;0.10;;;0.10;;
41661;SDS011;27351;45.992;12.666;2022-11-23T00:06:34;0.10;;;0.10;;
41661;SDS011;27351;45.992;12.666;2022-11-23T00:09:00;0.80;;;0.20;;
41661;SDS011;27351;45.992;12.666;2022-11-23T00:11:26;0.17;;;0.17;;
41661;SDS011;27351;45.992;12.666;2022-11-23T00:13:52;0.30;;;0.10;;
41661;SDS011;27351;45.992;12.666;2022-11-23T00:16:19;0.10;;;0.10;;
41661;SDS011;27351;45.992;12.666;2022-11-23T00:18:46;0.32;;;0.32;;
41661;SDS011;27351;45.992;12.666;2022-11-23T00:21:13;0.10;;;0.10;;
41661;SDS011;27351;45.992;12.666;2022-11-23T00:23:39;0.10;;;0.10;;
41661;SDS011;27351;45.992;12.666;2022-11-23T00:26:05;0.10;;;0.10;;
41661;SDS011;27351;45.992;12.666;2022-11-23T00:28:32;0.20;;;0.10;;
41661;SDS011;27351;45.992;12.666;2022-11-23T00:31:00;0.20;;;0.20;;
41661;SDS011;27351;45.992;12.666;2022-11-23T00:33:26;0.80;;;0.10;;
41661;SDS011;27351;45.992;12.666;2022-11-23T00:36:02;0.40;;;0.10;;
41661;SDS011;27351;45.992;12.666;2022-11-23T00:38:29;0.10;;;0.10;;
41661;SDS011;27351;45.992;12.666;2022-11-23T00:40:58;0.10;;;0.10;;
41661;SDS011;27351;45.992;12.666;2022-11-23T00:43:25;0.10;;;0.10;;
41661;SDS011;27351;45.992;12.666;2022-11-23T00:48:48;0.10;;;0.10;;
41661;SDS011;27351;45.992;12.666;2022-11-23T00:51:16;0.55;;;0.10;;
41661;SDS011;27351;45.992;12.666;2022-11-23T00:53:43;0.10;;;0.10;;
41661;SDS011;27351;45.992;12.666;2022-11-23T00:56:10;0.70;;;0.10;;
41661;SDS011;27351;45.992;12.666;2022-11-23T00:58:35;0.10;;;0.10;;
41661;SDS011;27351;45.992;12.666;2022-11-23T01:01:04;0.20;;;0.10;;
41661;SDS011;27351;45.992;12.666;2022-11-23T01:03:33;0.20;;;0.20;;
41661;SDS011;27351;45.992;12.666;2022-11-23T01:06:32;0.20;;;0.10;;
41661;SDS011;27351;45.992;12.666;2022-11-23T01:08:51;1.27;;;0.20;;
41661;SDS011;27351;45.992;12.666;2022-11-23T01:11:21;0.30;;;0.20;;
41661;SDS011;27351;45.992;12.666;2022-11-23T01:13:47;0.10;;;0.10;;
41661;SDS011;27351;45.992;12.666;2022-11-23T01:16:17;0.20;;;0.20;;
41661;SDS011;27351;45.992;12.666;2022-11-23T01:18:43;0.40;;;0.20;;
41661;SDS011;27351;45.992;12.666;2022-11-23T01:21:09;0.40;;;0.20;;
41661;SDS011;27351;45.992;12.666;2022-11-23T01:23:37;0.30;;;0.30;;
41661;SDS011;27351;45.992;12.666;2022-11-23T01:26:09;0.65;;;0.38;;
41661;SDS011;27351;45.992;12.666;2022-11-23T01:28:35;0.50;;;0.45;;
41661;SDS011;27351;45.992;12.666;2022-11-23T01:31:04;0.30;;;0.30;;
41661;SDS011;27351;45.992;12.666;2022-11-23T01:33:30;0.30;;;0.30;;
41661;SDS011;27351;45.992;12.666;2022-11-23T01:35:56;0.70;;;0.40;;
41661;SDS011;27351;45.992;12.666;2022-11-23T01:38:22;1.10;;;0.60;;
41661;SDS011;27351;45.992;12.666;2022-11-23T01:40:48;1.60;;;0.60;;
41661;SDS011;27351;45.992;12.666;2022-11-23T01:43:15;0.50;;;0.43;;
41661;SDS011;27351;45.992;12.666;2022-11-23T01:45:42;1.33;;;0.60;;
41661;SDS011;27351;45.992;12.666;2022-11-23T01:48:10;0.95;;;0.60;;
41661;SDS011;27351;45.992;12.666;2022-11-23T01:50:38;0.90;;;0.50;;
41661;SDS011;27351;45.992;12.666;2022-11-23T01:53:04;2.40;;;0.60;;
41661;SDS011;27351;45.992;12.666;2022-11-23T01:55:30;1.73;;;0.47;;
41661;SDS011;27351;45.992;12.666;2022-11-23T01:58:05;1.52;;;0.60;;
41661;SDS011;27351;45.992;12.666;2022-11-23T02:00:33;0.82;;;0.50;;
41661;SDS011;27351;45.992;12.666;2022-11-23T02:03:00;2.60;;;0.50;;
41661;SDS011;27351;45.992;12.666;2022-11-23T02:05:29;2.28;;;0.63;;
41661;SDS011;27351;45.992;12.666;2022-11-23T02:07:56;0.90;;;0.40;;
41661;SDS011;27351;45.992;12.666;2022-11-23T02:10:22;0.85;;;0.40;;
41661;SDS011;27351;45.992;12.666;2022-11-23T02:12:49;2.63;;;0.57;;
41661;SDS011;27351;45.992;12.666;2022-11-23T02:15:14;1.17;;;0.45;;
41661;SDS011;27351;45.992;12.666;2022-11-23T02:17:40;0.80;;;0.30;;
41661;SDS011;27351;45.992;12.666;2022-11-23T02:25:24;1.90;;;0.40;;
41661;SDS011;27351;45.992;12.666;2022-11-23T02:27:52;0.55;;;0.40;;
41661;SDS011;27351;45.992;12.666;2022-11-23T02:30:17;0.80;;;0.40;;
41661;SDS011;27351;45.992;12.666;2022-11-23T02:32:43;0.63;;;0.40;;
41661;SDS011;27351;45.992;12.666;2022-11-23T02:35:10;0.60;;;0.50;;
41661;SDS011;27351;45.992;12.666;2022-11-23T02:37:36;0.35;;;0.30;;
41661;SDS011;27351;45.992;12.666;2022-11-23T02:40:03;1.15;;;0.45;;
41661;SDS011;27351;45.992;12.666;2022-11-23T02:42:33;0.77;;;0.57;;
41661;SDS011;27351;45.992;12.666;2022-11-23T02:45:02;0.70;;;0.50;;
41661;SDS011;27351;45.992;12.666;2022-11-23T02:47:30;0.50;;;0.40;;
41661;SDS011;27351;45.992;12.666;2022-11-23T02:49:55;1.80;;;0.60;;
41661;SDS011;27351;45.992;12.666;2022-11-23T02:52:21;0.40;;;0.38;;
41661;SDS011;27351;45.992;12.666;2022-11-23T02:54:47;1.48;;;0.40;;
41661;SDS011;27351;45.992;12.666;2022-11-23T02:57:12;0.57;;;0.40;;
41661;SDS011;27351;45.992;12.666;2022-11-23T02:59:39;0.30;;;0.30;;
41661;SDS011;27351;45.992;12.666;2022-11-23T03:02:05;1.13;;;0.40;;
41661;SDS011;27351;45.992;12.666;2022-11-23T03:04:31;0.63;;;0.33;;
41661;SDS011;27351;45.992;12.666;2022-11-23T03:06:57;1.15;;;0.40;;
41661;SDS011;27351;45.992;12.666;2022-11-23T03:09:23;0.40;;;0.35;;
41661;SDS011;27351;45.992;12.666;2022-11-23T03:11:51;0.30;;;0.30;;
41661;SDS011;27351;45.992;12.666;2022-11-23T03:14:17;0.63;;;0.40;;
41661;SDS011;27351;45.992;12.666;2022-11-23T03:16:56;0.40;;;0.40;;
41661;SDS011;27351;45.992;12.666;2022-11-23T03:19:24;0.52;;;0.40;;
41661;SDS011;27351;45.992;12.666;2022-11-23T03:21:52;0.63;;;0.50;;
41661;SDS011;27351;45.992;12.666;2022-11-23T03:24:17;0.70;;;0.40;;
41661;SDS011;27351;45.992;12.666;2022-11-23T03:26:45;0.80;;;0.47;;
41661;SDS011;27351;45.992;12.666;2022-11-23T03:29:16;1.02;;;0.60;;
41661;SDS011;27351;45.992;12.666;2022-11-23T03:31:44;0.38;;;0.25;;
41661;SDS011;27351;45.992;12.666;2022-11-23T03:34:13;0.32;;;0.32;;
41661;SDS011;27351;45.992;12.666;2022-11-23T03:36:38;0.80;;;0.37;;
41661;SDS011;27351;45.992;12.666;2022-11-23T03:39:04;0.50;;;0.40;;
41661;SDS011;27351;45.992;12.666;2022-11-23T03:41:50;0.52;;;0.52;;
41661;SDS011;27351;45.992;12.666;2022-11-23T03:44:17;0.30;;;0.30;;
41661;SDS011;27351;45.992;12.666;2022-11-23T03:46:44;1.77;;;0.50;;
41661;SDS011;27351;45.992;12.666;2022-11-23T03:49:09;1.30;;;0.40;;
41661;SDS011;27351;45.992;12.666;2022-11-23T03:51:35;0.40;;;0.37;;
41661;SDS011;27351;45.992;12.666;2022-11-23T03:54:02;0.47;;;0.40;;
41661;SDS011;27351;45.992;12.666;2022-11-23T03:56:28;0.47;;;0.47;;
41661;SDS011;27351;45.992;12.666;2022-11-23T03:58:55;0.77;;;0.47;;
41661;SDS011;27351;45.992;12.666;2022-11-23T04:01:22;0.60;;;0.60;;
41661;SDS011;27351;45.992;12.666;2022-11-23T04:03:53;1.70;;;0.43;;
41661;SDS011;27351;45.992;12.666;2022-11-23T04:06:52;0.60;;;0.60;;
41661;SDS011;27351;45.992;12.666;2022-11-23T04:09:22;1.50;;;0.50;;
41661;SDS011;27351;45.992;12.666;2022-11-23T04:12:02;1.23;;;0.60;;
41661;SDS011;27351;45.992;12.666;2022-11-23T04:14:28;0.90;;;0.60;;
41661;SDS011;27351;45.992;12.666;2022-11-23T04:16:54;1.20;;;0.68;;
41661;SDS011;27351;45.992;12.666;2022-11-23T04:19:20;1.02;;;0.50;;
41661;SDS011;27351;45.992;12.666;2022-11-23T04:21:46;0.80;;;0.50;;
41661;SDS011;27351;45.992;12.666;2022-11-23T04:24:12;2.03;;;0.85;;
41661;SDS011;27351;45.992;12.666;2022-11-23T04:26:40;2.78;;;0.50;;
41661;SDS011;27351;45.992;12.666;2022-11-23T04:29:08;1.27;;;0.60;;
41661;SDS011;27351;45.992;12.666;2022-11-23T04:31:36;2.25;;;0.52;;
41661;SDS011;27351;45.992;12.666;2022-11-23T04:34:12;1.00;;;0.50;;
41661;SDS011;27351;45.992;12.666;2022-11-23T04:36:38;0.60;;;0.55;;
41661;SDS011;27351;45.992;12.666;2022-11-23T04:39:05;1.90;;;0.80;;
41661;SDS011;27351;45.992;12.666;2022-11-23T04:41:43;0.52;;;0.52;;
41661;SDS011;27351;45.992;12.666;2022-11-23T04:44:10;1.63;;;0.70;;
41661;SDS011;27351;45.992;12.666;2022-11-23T04:46:38;0.80;;;0.50;;
41661;SDS011;27351;45.992;12.666;2022-11-23T04:49:08;0.80;;;0.45;;
41661;SDS011;27351;45.992;12.666;2022-11-23T04:51:34;0.80;;;0.60;;
41661;SDS011;27351;45.992;12.666;2022-11-23T04:54:01;0.70;;;0.40;;
41661;SDS011;27351;45.992;12.666;2022-11-23T04:56:30;1.75;;;0.60;;
41661;SDS011;27351;45.992;12.666;2022-11-23T04:58:56;0.45;;;0.40;;
41661;SDS011;27351;45.992;12.666;2022-11-23T05:01:22;0.65;;;0.40;;
41661;SDS011;27351;45.992;12.666;2022-11-23T05:04:06;1.30;;;0.60;;
41661;SDS011;27351;45.992;12.666;2022-11-23T05:06:32;1.33;;;0.70;;
41661;SDS011;27351;45.992;12.666;2022-11-23T05:09:00;0.70;;;0.40;;
41661;SDS011;27351;45.992;12.666;2022-11-23T05:11:47;2.17;;;0.70;;
41661;SDS011;27351;45.992;12.666;2022-11-23T05:14:13;1.00;;;0.60;;
41661;SDS011;27351;45.992;12.666;2022-11-23T05:16:38;1.47;;;0.80;;
41661;SDS011;27351;45.992;12.666;2022-11-23T05:19:04;1.20;;;0.60;;
41661;SDS011;27351;45.992;12.666;2022-11-23T05:21:30;2.10;;;0.75;;
41661;SDS011;27351;45.992;12.666;2022-11-23T05:23:55;1.75;;;0.60;;
41661;SDS011;27351;45.992;12.666;2022-11-23T05:26:21;0.77;;;0.50;;
41661;SDS011;27351;45.992;12.666;2022-11-23T05:28:47;0.70;;;0.70;;
41661;SDS011;27351;45.992;12.666;2022-11-23T05:31:14;1.10;;;0.63;;
41661;SDS011;27351;45.992;12.666;2022-11-23T05:33:43;1.20;;;0.60;;
41661;SDS011;27351;45.992;12.666;2022-11-23T05:36:09;1.45;;;0.60;;
41661;SDS011;27351;45.992;12.666;2022-11-23T05:38:40;1.08;;;0.68;;
41661;SDS011;27351;45.992;12.666;2022-11-23T05:41:11;2.27;;;0.70;;
41661;SDS011;27351;45.992;12.666;2022-11-23T05:43:40;1.00;;;0.60;;
41661;SDS011;27351;45.992;12.666;2022-11-23T05:46:10;1.02;;;0.77;;
41661;SDS011;27351;45.992;12.666;2022-11-23T05:48:37;1.83;;;0.95;;
41661;SDS011;27351;45.992;12.666;2022-11-23T05:51:08;1.02;;;0.63;;
41661;SDS011;27351;45.992;12.666;2022-11-23T05:53:37;0.80;;;0.70;;
41661;SDS011;27351;45.992;12.666;2022-11-23T05:56:13;1.13;;;0.77;;
41661;SDS011;27351;45.992;12.666;2022-11-23T05:59:01;1.60;;;0.70;;
41661;SDS011;27351;45.992;12.666;2022-11-23T06:01:32;1.83;;;0.90;;
41661;SDS011;27351;45.992;12.666;2022-11-23T06:04:01;1.02;;;0.90;;
41661;SDS011;27351;45.992;12.666;2022-11-23T06:06:32;2.25;;;1.00;;
41661;SDS011;27351;45.992;12.666;2022-11-23T06:08:57;2.78;;;0.90;;
41661;SDS011;27351;45.992;12.666;2022-11-23T06:11:23;2.45;;;1.13;;
41661;SDS011;27351;45.992;12.666;2022-11-23T06:13:48;1.70;;;0.98;;
41661;SDS011;27351;45.992;12.666;2022-11-23T06:16:15;2.75;;;1.50;;
41661;SDS011;27351;45.992;12.666;2022-11-23T06:18:53;1.85;;;0.88;;
41661;SDS011;27351;45.992;12.666;2022-11-23T06:21:19;3.20;;;1.33;;
41661;SDS011;27351;45.992;12.666;2022-11-23T06:23:47;2.88;;;1.00;;
41661;SDS011;27351;45.992;12.666;2022-11-23T06:26:14;2.08;;;1.00;;
41661;SDS011;27351;45.992;12.666;2022-11-23T06:28:39;2.13;;;1.33;;
41661;SDS011;27351;45.992;12.666;2022-11-23T06:31:08;4.10;;;1.10;;
41661;SDS011;27351;45.992;12.666;2022-11-23T06:33:35;4.05;;;1.00;;
41661;SDS011;27351;45.992;12.666;2022-11-23T06:36:01;2.93;;;1.27;;
41661;SDS011;27351;45.992;12.666;2022-11-23T06:38:38;2.78;;;1.30;;
41661;SDS011;27351;45.992;12.666;2022-11-23T06:41:14;2.10;;;1.10;;
41661;SDS011;27351;45.992;12.666;2022-11-23T06:43:42;2.80;;;1.50;;
41661;SDS011;27351;45.992;12.666;2022-11-23T06:46:11;2.40;;;1.10;;
41661;SDS011;27351;45.992;12.666;2022-11-23T06:48:41;1.65;;;0.88;;
41661;SDS011;27351;45.992;12.666;2022-11-23T06:51:07;1.80;;;0.80;;
41661;SDS011;27351;45.992;12.666;2022-11-23T06:53:35;1.05;;;0.95;;
41661;SDS011;27351;45.992;12.666;2022-11-23T06:56:04;2.53;;;1.20;;
41661;SDS011;27351;45.992;12.666;2022-11-23T06:58:31;1.48;;;0.90;;
41661;SDS011;27351;45.992;12.666;2022-11-23T07:01:03;3.30;;;1.10;;
41661;SDS011;27351;45.992;12.666;2022-11-23T07:03:35;1.85;;;1.00;;
41661;SDS011;27351;45.992;12.666;2022-11-23T07:06:08;2.00;;;1.20;;
41661;SDS011;27351;45.992;12.666;2022-11-23T07:08:36;2.10;;;1.10;;
41661;SDS011;27351;45.992;12.666;2022-11-23T07:11:20;1.63;;;0.90;;
41661;SDS011;27351;45.992;12.666;2022-11-23T07:13:46;1.55;;;1.00;;
41661;SDS011;27351;45.992;12.666;2022-11-23T07:16:14;2.22;;;1.20;;
41661;SDS011;27351;45.992;12.666;2022-11-23T07:28:24;2.37;;;1.30;;
41661;SDS011;27351;45.992;12.666;2022-11-23T07:30:50;2.75;;;1.15;;
41661;SDS011;27351;45.992;12.666;2022-11-23T07:33:20;3.05;;;1.33;;
41661;SDS011;27351;45.992;12.666;2022-11-23T07:35:47;3.15;;;1.75;;
41661;SDS011;27351;45.992;12.666;2022-11-23T07:40:47;3.40;;;1.75;;
41661;SDS011;27351;45.992;12.666;2022-11-23T07:43:23;6.57;;;2.63;;
41661;SDS011;27351;45.992;12.666;2022-11-23T07:45:48;6.40;;;3.00;;
41661;SDS011;27351;45.992;12.666;2022-11-23T07:48:16;11.35;;;5.57;;
41661;SDS011;27351;45.992;12.666;2022-11-23T07:50:42;8.98;;;4.18;;
41661;SDS011;27351;45.992;12.666;2022-11-23T07:53:08;6.22;;;3.70;;
41661;SDS011;27351;45.992;12.666;2022-11-23T07:55:34;5.22;;;2.72;;
41661;SDS011;27351;45.992;12.666;2022-11-23T07:58:01;5.07;;;2.47;;
41661;SDS011;27351;45.992;12.666;2022-11-23T08:00:27;3.85;;;1.80;;
41661;SDS011;27351;45.992;12.666;2022-11-23T08:02:53;4.57;;;1.45;;
41661;SDS011;27351;45.992;12.666;2022-11-23T08:05:20;3.37;;;1.40;;
41661;SDS011;27351;45.992;12.666;2022-11-23T08:07:46;2.78;;;1.40;;
41661;SDS011;27351;45.992;12.666;2022-11-23T08:10:12;2.15;;;1.15;;
41661;SDS011;27351;45.992;12.666;2022-11-23T08:12:38;2.37;;;1.30;;
41661;SDS011;27351;45.992;12.666;2022-11-23T08:15:04;2.63;;;1.40;;
41661;SDS011;27351;45.992;12.666;2022-11-23T08:17:30;3.13;;;1.45;;
41661;SDS011;27351;45.992;12.666;2022-11-23T08:19:57;2.97;;;1.10;;
41661;SDS011;27351;45.992;12.666;2022-11-23T08:22:26;3.30;;;1.20;;
41661;SDS011;27351;45.992;12.666;2022-11-23T08:24:52;3.28;;;1.30;;
41661;SDS011;27351;45.992;12.666;2022-11-23T08:27:18;2.45;;;1.10;;
41661;SDS011;27351;45.992;12.666;2022-11-23T08:29:44;1.83;;;1.10;;
41661;SDS011;27351;45.992;12.666;2022-11-23T08:32:10;2.13;;;1.00;;
41661;SDS011;27351;45.992;12.666;2022-11-23T08:34:36;2.65;;;0.90;;
41661;SDS011;27351;45.992;12.666;2022-11-23T08:37:01;1.90;;;1.10;;
41661;SDS011;27351;45.992;12.666;2022-11-23T08:39:27;1.47;;;1.00;;
41661;SDS011;27351;45.992;12.666;2022-11-23T08:41:52;2.00;;;0.90;;
41661;SDS011;27351;45.992;12.666;2022-11-23T08:44:18;1.48;;;0.90;;
41661;SDS011;27351;45.992;12.666;2022-11-23T08:46:43;2.00;;;1.00;;
41661;SDS011;27351;45.992;12.666;2022-11-23T08:49:09;3.10;;;1.15;;
41661;SDS011;27351;45.992;12.666;2022-11-23T08:51:34;1.95;;;0.90;;
41661;SDS011;27351;45.992;12.666;2022-11-23T08:54:00;2.53;;;1.17;;
41661;SDS011;27351;45.992;12.666;2022-11-23T08:56:26;1.73;;;0.98;;
41661;SDS011;27351;45.992;12.666;2022-11-23T08:58:51;2.90;;;1.10;;
41661;SDS011;27351;45.992;12.666;2022-11-23T09:01:17;2.40;;;1.10;;
41661;SDS011;27351;45.992;12.666;2022-11-23T09:03:43;1.67;;;0.95;;
41661;SDS011;27351;45.992;12.666;2022-11-23T09:06:09;2.63;;;1.00;;
41661;SDS011;27351;45.992;12.666;2022-11-23T09:08:35;2.05;;;1.00;;
41661;SDS011;27351;45.992;12.666;2022-11-23T09:11:02;2.20;;;0.95;;
41661;SDS011;27351;45.992;12.666;2022-11-23T09:13:29;1.45;;;0.82;;
41661;SDS011;27351;45.992;12.666;2022-11-23T09:15:58;1.73;;;1.00;;
41661;SDS011;27351;45.992;12.666;2022-11-23T09:18:25;2.75;;;1.17;;
41661;SDS011;27351;45.992;12.666;2022-11-23T09:20:51;2.83;;;1.17;;
41661;SDS011;27351;45.992;12.666;2022-11-23T09:23:16;1.83;;;1.00;;
41661;SDS011;27351;45.992;12.666;2022-11-23T09:25:42;1.60;;;0.90;;
41661;SDS011;27351;45.992;12.666;2022-11-23T09:28:12;5.22;;;1.20;;
41661;SDS011;27351;45.992;12.666;2022-11-23T09:30:39;2.20;;;1.10;;
41661;SDS011;27351;45.992;12.666;2022-11-23T09:33:05;1.77;;;1.10;;
41661;SDS011;27351;45.992;12.666;2022-11-23T09:35:33;5.55;;;1.60;;
41661;SDS011;27351;45.992;12.666;2022-11-23T09:37:58;3.03;;;1.35;;
41661;SDS011;27351;45.992;12.666;2022-11-23T09:40:31;3.67;;;1.30;;
41661;SDS011;27351;45.992;12.666;2022-11-23T09:45:51;4.30;;;1.58;;
41661;SDS011;27351;45.992;12.666;2022-11-23T09:51:18;3.78;;;2.17;;
41661;SDS011;27351;45.992;12.666;2022-11-23T09:56:20;5.03;;;2.10;;
41661;SDS011;27351;45.992;12.666;2022-11-23T09:58:46;4.47;;;2.28;;
41661;SDS011;27351;45.992;12.666;2022-11-23T10:01:15;5.38;;;2.30;;
41661;SDS011;27351;45.992;12.666;2022-11-23T10:03:41;4.43;;;2.13;;
41661;SDS011;27351;45.992;12.666;2022-11-23T10:06:17;3.95;;;2.10;;
41661;SDS011;27351;45.992;12.666;2022-11-23T10:08:51;3.85;;;1.80;;
41661;SDS011;27351;45.992;12.666;2022-11-23T10:11:29;3.92;;;1.90;;
41661;SDS011;27351;45.992;12.666;2022-11-23T10:18:59;3.55;;;1.60;;
41661;SDS011;27351;45.992;12.666;2022-11-23T10:21:40;3.83;;;1.90;;
41661;SDS011;27351;45.992;12.666;2022-11-23T10:24:12;3.50;;;1.65;;
41661;SDS011;27351;45.992;12.666;2022-11-23T10:26:41;3.58;;;1.65;;
41661;SDS011;27351;45.992;12.666;2022-11-23T10:31:52;3.83;;;1.90;;
41661;SDS011;27351;45.992;12.666;2022-11-23T10:34:20;2.28;;;1.30;;
41661;SDS011;27351;45.992;12.666;2022-11-23T10:36:48;3.85;;;1.63;;
41661;SDS011;27351;45.992;12.666;2022-11-23T10:39:16;4.20;;;1.70;;
41661;SDS011;27351;45.992;12.666;2022-11-23T10:41:43;4.82;;;1.98;;
41661;SDS011;27351;45.992;12.666;2022-11-23T10:44:25;4.82;;;2.25;;
41661;SDS011;27351;45.992;12.666;2022-11-23T10:46:54;4.15;;;1.73;;
41661;SDS011;27351;45.992;12.666;2022-11-23T10:49:21;4.13;;;1.95;;
41661;SDS011;27351;45.992;12.666;2022-11-23T10:51:57;3.47;;;1.98;;
41661;SDS011;27351;45.992;12.666;2022-11-23T10:54:51;4.45;;;2.10;;
41661;SDS011;27351;45.992;12.666;2022-11-23T10:59:59;3.63;;;2.05;;
41661;SDS011;27351;45.992;12.666;2022-11-23T11:02:26;3.72;;;2.08;;
41661;SDS011;27351;45.992;12.666;2022-11-23T11:07:38;5.40;;;2.30;;
41661;SDS011;27351;45.992;12.666;2022-11-23T11:10:04;5.43;;;2.50;;
41661;SDS011;27351;45.992;12.666;2022-11-23T11:12:33;5.32;;;2.17;;
41661;SDS011;27351;45.992;12.666;2022-11-23T11:17:34;3.88;;;2.20;;
41661;SDS011;27351;45.992;12.666;2022-11-23T11:20:00;4.63;;;1.90;;
41661;SDS011;27351;45.992;12.666;2022-11-23T11:22:34;3.72;;;1.80;;
41661;SDS011;27351;45.992;12.666;2022-11-23T11:25:03;4.18;;;2.38;;
41661;SDS011;27351;45.992;12.666;2022-11-23T11:27:30;4.00;;;1.90;;
41661;SDS011;27351;45.992;12.666;2022-11-23T11:29:57;5.43;;;2.10;;
41661;SDS011;27351;45.992;12.666;2022-11-23T11:32:37;4.78;;;1.75;;
41661;SDS011;27351;45.992;12.666;2022-11-23T11:35:10;4.30;;;1.75;;
41661;SDS011;27351;45.992;12.666;2022-11-23T11:37:47;3.88;;;1.77;;
41661;SDS011;27351;45.992;12.666;2022-11-23T11:45:15;5.60;;;2.00;;
41661;SDS011;27351;45.992;12.666;2022-11-23T11:48:02;5.10;;;2.20;;
41661;SDS011;27351;45.992;12.666;2022-11-23T11:50:29;4.38;;;2.08;;
41661;SDS011;27351;45.992;12.666;2022-11-23T11:53:01;4.25;;;2.20;;
41661;SDS011;27351;45.992;12.666;2022-11-23T11:55:29;3.72;;;1.80;;
41661;SDS011;27351;45.992;12.666;2022-11-23T11:58:02;3.70;;;1.60;;
41661;SDS011;27351;45.992;12.666;2022-11-23T12:00:29;4.30;;;1.60;;
41661;SDS011;27351;45.992;12.666;2022-11-23T12:05:50;3.90;;;1.85;;
41661;SDS011;27351;45.992;12.666;2022-11-23T12:11:04;5.53;;;1.63;;
41661;SDS011;27351;45.992;12.666;2022-11-23T12:13:32;3.20;;;1.50;;
41661;SDS011;27351;45.992;12.666;2022-11-23T12:16:05;3.28;;;1.73;;
41661;SDS011;27351;45.992;12.666;2022-11-23T12:18:40;3.38;;;1.60;;
41661;SDS011;27351;45.992;12.666;2022-11-23T12:21:15;4.22;;;1.80;;
41661;SDS011;27351;45.992;12.666;2022-11-23T12:23:55;2.67;;;1.23;;
41661;SDS011;27351;45.992;12.666;2022-11-23T12:29:06;4.15;;;1.50;;
41661;SDS011;27351;45.992;12.666;2022-11-23T12:34:23;2.97;;;1.42;;
41661;SDS011;27351;45.992;12.666;2022-11-23T12:49:37;3.63;;;1.53;;
41661;SDS011;27351;45.992;12.666;2022-11-23T12:57:18;5.63;;;1.98;;
41661;SDS011;27351;45.992;12.666;2022-11-23T13:18:03;4.00;;;2.28;;
41661;SDS011;27351;45.992;12.666;2022-11-23T13:23:04;4.13;;;2.22;;
41661;SDS011;27351;45.992;12.666;2022-11-23T13:25:31;3.95;;;2.00;;
41661;SDS011;27351;45.992;12.666;2022-11-23T13:32:53;3.80;;;1.92;;
41661;SDS011;27351;45.992;12.666;2022-11-23T13:42:58;4.53;;;2.20;;
41661;SDS011;27351;45.992;12.666;2022-11-23T13:45:31;4.78;;;2.20;;
41661;SDS011;27351;45.992;12.666;2022-11-23T13:50:39;4.10;;;1.92;;
41661;SDS011;27351;45.992;12.666;2022-11-23T13:53:30;4.60;;;1.97;;
41661;SDS011;27351;45.992;12.666;2022-11-23T13:58:55;3.40;;;1.75;;
41661;SDS011;27351;45.992;12.666;2022-11-23T14:04:18;3.60;;;1.90;;
41661;SDS011;27351;45.992;12.666;2022-11-23T14:11:39;3.75;;;1.83;;
41661;SDS011;27351;45.992;12.666;2022-11-23T14:14:13;4.63;;;1.83;;
41661;SDS011;27351;45.992;12.666;2022-11-23T14:19:37;3.30;;;1.77;;
41661;SDS011;27351;45.992;12.666;2022-11-23T14:22:18;5.50;;;2.03;;
41661;SDS011;27351;45.992;12.666;2022-11-23T14:58:44;4.05;;;2.00;;
41661;SDS011;27351;45.992;12.666;2022-11-23T15:05:26;4.85;;;1.80;;
41661;SDS011;27351;45.992;12.666;2022-11-23T15:10:33;4.28;;;2.20;;
41661;SDS011;27351;45.992;12.666;2022-11-23T15:13:14;4.22;;;2.67;;
41661;SDS011;27351;45.992;12.666;2022-11-23T15:15:43;5.03;;;2.40;;
41661;SDS011;27351;45.992;12.666;2022-11-23T15:18:09;4.57;;;2.47;;
41661;SDS011;27351;45.992;12.666;2022-11-23T15:20:40;6.70;;;3.05;;
41661;SDS011;27351;45.992;12.666;2022-11-23T15:23:10;5.20;;;2.67;;
41661;SDS011;27351;45.992;12.666;2022-11-23T15:25:48;8.38;;;2.33;;
41661;SDS011;27351;45.992;12.666;2022-11-23T15:28:15;5.53;;;2.95;;
41661;SDS011;27351;45.992;12.666;2022-11-23T15:30:41;6.13;;;3.03;;
41661;SDS011;27351;45.992;12.666;2022-11-23T15:33:09;6.43;;;3.13;;
41661;SDS011;27351;45.992;12.666;2022-11-23T15:35:39;6.35;;;3.10;;
41661;SDS011;27351;45.992;12.666;2022-11-23T15:38:08;6.90;;;3.15;;
41661;SDS011;27351;45.992;12.666;2022-11-23T15:40:36;5.95;;;3.25;;
41661;SDS011;27351;45.992;12.666;2022-11-23T15:43:03;6.85;;;3.40;;
41661;SDS011;27351;45.992;12.666;2022-11-23T15:45:37;7.10;;;3.50;;
41661;SDS011;27351;45.992;12.666;2022-11-23T15:48:08;7.07;;;3.80;;
41661;SDS011;27351;45.992;12.666;2022-11-23T15:50:42;5.93;;;3.20;;
41661;SDS011;27351;45.992;12.666;2022-11-23T15:53:08;8.75;;;4.10;;
41661;SDS011;27351;45.992;12.666;2022-11-23T15:55:37;7.32;;;3.22;;
41661;SDS011;27351;45.992;12.666;2022-11-23T15:58:04;7.27;;;4.40;;
41661;SDS011;27351;45.992;12.666;2022-11-23T16:00:32;6.43;;;3.25;;
41661;SDS011;27351;45.992;12.666;2022-11-23T16:05:42;6.82;;;3.67;;
41661;SDS011;27351;45.992;12.666;2022-11-23T16:08:21;11.10;;;3.97;;
41661;SDS011;27351;45.992;12.666;2022-11-23T16:10:52;8.95;;;3.50;;
41661;SDS011;27351;45.992;12.666;2022-11-23T16:13:36;10.13;;;5.03;;
41661;SDS011;27351;45.992;12.666;2022-11-23T16:16:15;11.45;;;6.05;;
41661;SDS011;27351;45.992;12.666;2022-11-23T16:18:45;10.45;;;5.15;;
41661;SDS011;27351;45.992;12.666;2022-11-23T16:21:14;10.02;;;5.55;;
41661;SDS011;27351;45.992;12.666;2022-11-23T16:23:41;14.52;;;6.05;;
41661;SDS011;27351;45.992;12.666;2022-11-23T16:26:08;8.57;;;4.68;;
41661;SDS011;27351;45.992;12.666;2022-11-23T16:28:53;7.60;;;3.92;;
41661;SDS011;27351;45.992;12.666;2022-11-23T16:31:37;10.23;;;4.47;;
41661;SDS011;27351;45.992;12.666;2022-11-23T16:34:15;7.78;;;4.40;;
41661;SDS011;27351;45.992;12.666;2022-11-23T16:36:41;7.28;;;3.80;;
41661;SDS011;27351;45.992;12.666;2022-11-23T16:39:07;8.00;;;3.78;;
41661;SDS011;27351;45.992;12.666;2022-11-23T16:41:32;7.07;;;4.10;;
41661;SDS011;27351;45.992;12.666;2022-11-23T16:43:58;8.73;;;4.05;;
41661;SDS011;27351;45.992;12.666;2022-11-23T16:46:24;8.63;;;4.20;;
41661;SDS011;27351;45.992;12.666;2022-11-23T16:48:49;8.57;;;4.07;;
41661;SDS011;27351;45.992;12.666;2022-11-23T16:51:18;7.72;;;3.97;;
41661;SDS011;27351;45.992;12.666;2022-11-23T16:53:44;7.03;;;3.88;;
41661;SDS011;27351;45.992;12.666;2022-11-23T16:56:15;8.60;;;4.47;;
41661;SDS011;27351;45.992;12.666;2022-11-23T16:58:41;8.98;;;4.97;;
41661;SDS011;27351;45.992;12.666;2022-11-23T17:01:07;10.53;;;5.57;;
41661;SDS011;27351;45.992;12.666;2022-11-23T17:03:38;11.20;;;6.15;;
41661;SDS011;27351;45.992;12.666;2022-11-23T17:06:05;11.98;;;7.07;;
41661;SDS011;27351;45.992;12.666;2022-11-23T17:08:31;10.13;;;6.17;;
41661;SDS011;27351;45.992;12.666;2022-11-23T17:10:57;12.97;;;7.00;;
41661;SDS011;27351;45.992;12.666;2022-11-23T17:13:23;14.63;;;8.67;;
41661;SDS011;27351;45.992;12.666;2022-11-23T17:15:56;15.63;;;9.68;;
41661;SDS011;27351;45.992;12.666;2022-11-23T17:18:28;25.75;;;15.35;;
41661;SDS011;27351;45.992;12.666;2022-11-23T17:20:53;18.48;;;12.45;;
41661;SDS011;27351;45.992;12.666;2022-11-23T17:23:20;14.35;;;7.18;;
41661;SDS011;27351;45.992;12.666;2022-11-23T17:25:47;19.63;;;10.35;;
41661;SDS011;27351;45.992;12.666;2022-11-23T17:28:16;14.95;;;8.80;;
41661;SDS011;27351;45.992;12.666;2022-11-23T17:30:46;26.48;;;15.88;;
41661;SDS011;27351;45.992;12.666;2022-11-23T17:33:11;15.77;;;9.27;;
41661;SDS011;27351;45.992;12.666;2022-11-23T17:35:38;15.38;;;8.15;;